Waymart, Pennsylvania
Current Conditions -  °F | °C
As of 10:54 PM on Wednesday 22 Oct 2014 (Local Time) from KAVP Reporting Station
Light Rain Light Rain  
Wind Chill: 50°   Ceiling: 1500
Heat Index: 50°   Visibility: 10mi
Dew Point: 44°   Wind: 16mph
Humidity: 80%   Direction: 350°N
Pressure: 29.93"   Gusts: 26mph
Location:  41.58°N, 75.41°W
Report Text: KAVP 230254Z AUTO 35014G23KT 10SM -RA OVC015 10/07 A2993 RMK AO2 RAB44 SLP134 P0000 60001 T01000067 58008
Loading
Personal Weather Stations






























Interactive Weather Map
Tropical Storm Tracking
New forecast layout! Learn more

10-Day Weather Forecast

Advertisements
Track Severe Weather on mobile